sensor_id;sensor_type;location;lat;lon;timestamp;temperature;humidity
4090;DHT22;2059;48.538;12.146;2022-12-10T00:03:07;3.70;99.90
4090;DHT22;2059;48.538;12.146;2022-12-10T00:08:09;3.70;99.90
4090;DHT22;2059;48.538;12.146;2022-12-10T00:13:12;3.70;99.90
4090;DHT22;2059;48.538;12.146;2022-12-10T00:18:14;3.70;99.90
4090;DHT22;2059;48.538;12.146;2022-12-10T00:23:16;4.10;99.90
4090;DHT22;2059;48.538;12.146;2022-12-10T00:28:19;4.00;99.90
4090;DHT22;2059;48.538;12.146;2022-12-10T00:33:21;3.70;99.90
4090;DHT22;2059;48.538;12.146;2022-12-10T00:38:23;3.80;99.90
4090;DHT22;2059;48.538;12.146;2022-12-10T00:43:26;4.00;99.90
4090;DHT22;2059;48.538;12.146;2022-12-10T00:48:28;3.90;99.90
4090;DHT22;2059;48.538;12.146;2022-12-10T00:53:32;3.90;99.90
4090;DHT22;2059;48.538;12.146;2022-12-10T00:58:36;3.80;99.90
4090;DHT22;2059;48.538;12.146;2022-12-10T01:03:39;4.00;99.90
4090;DHT22;2059;48.538;12.146;2022-12-10T01:08:41;3.90;99.90
4090;DHT22;2059;48.538;12.146;2022-12-10T01:13:46;3.70;99.90
4090;DHT22;2059;48.538;12.146;2022-12-10T01:18:48;3.60;99.90
4090;DHT22;2059;48.538;12.146;2022-12-10T01:23:51;3.70;99.90
4090;DHT22;2059;48.538;12.146;2022-12-10T01:28:55;3.70;99.90
4090;DHT22;2059;48.538;12.146;2022-12-10T01:33:57;3.50;99.90
4090;DHT22;2059;48.538;12.146;2022-12-10T01:39:01;3.50;99.90
4090;DHT22;2059;48.538;12.146;2022-12-10T01:49:39;3.60;99.90
4090;DHT22;2059;48.538;12.146;2022-12-10T01:54:43;3.80;99.90
4090;DHT22;2059;48.538;12.146;2022-12-10T01:59:50;3.70;99.90
4090;DHT22;2059;48.538;12.146;2022-12-10T02:05:01;3.40;99.90
4090;DHT22;2059;48.538;12.146;2022-12-10T02:10:11;3.60;99.90
4090;DHT22;2059;48.538;12.146;2022-12-10T02:15:18;3.70;99.90
4090;DHT22;2059;48.538;12.146;2022-12-10T02:20:24;3.70;99.90
4090;DHT22;2059;48.538;12.146;2022-12-10T02:25:32;3.80;99.90
4090;DHT22;2059;48.538;12.146;2022-12-10T02:30:39;3.70;99.90
4090;DHT22;2059;48.538;12.146;2022-12-10T02:35:43;3.50;99.90
4090;DHT22;2059;48.538;12.146;2022-12-10T02:40:48;3.70;99.90
4090;DHT22;2059;48.538;12.146;2022-12-10T02:45:54;3.60;99.90
4090;DHT22;2059;48.538;12.146;2022-12-10T02:50:56;3.50;99.90
4090;DHT22;2059;48.538;12.146;2022-12-10T02:56:08;3.50;99.90
4090;DHT22;2059;48.538;12.146;2022-12-10T03:01:22;3.60;99.90
4090;DHT22;2059;48.538;12.146;2022-12-10T03:06:30;3.90;99.90
4090;DHT22;2059;48.538;12.146;2022-12-10T03:11:34;3.70;99.90
4090;DHT22;2059;48.538;12.146;2022-12-10T03:16:40;3.70;99.90
4090;DHT22;2059;48.538;12.146;2022-12-10T03:21:44;3.80;99.90
4090;DHT22;2059;48.538;12.146;2022-12-10T03:26:48;3.80;99.90
4090;DHT22;2059;48.538;12.146;2022-12-10T03:31:53;3.70;99.90
4090;DHT22;2059;48.538;12.146;2022-12-10T03:36:55;3.60;99.90
4090;DHT22;2059;48.538;12.146;2022-12-10T03:41:58;3.90;99.90
4090;DHT22;2059;48.538;12.146;2022-12-10T03:47:02;3.70;99.90
4090;DHT22;2059;48.538;12.146;2022-12-10T03:52:04;3.60;99.90
4090;DHT22;2059;48.538;12.146;2022-12-10T03:57:06;3.60;99.90
4090;DHT22;2059;48.538;12.146;2022-12-10T04:02:09;3.80;99.90
4090;DHT22;2059;48.538;12.146;2022-12-10T04:07:12;3.50;99.90
4090;DHT22;2059;48.538;12.146;2022-12-10T04:12:14;3.70;99.90
4090;DHT22;2059;48.538;12.146;2022-12-10T04:17:17;3.60;99.90
4090;DHT22;2059;48.538;12.146;2022-12-10T04:22:19;3.70;99.90
4090;DHT22;2059;48.538;12.146;2022-12-10T04:27:39;3.70;99.90
4090;DHT22;2059;48.538;12.146;2022-12-10T04:32:42;3.60;99.90
4090;DHT22;2059;48.538;12.146;2022-12-10T04:37:44;3.70;99.90
4090;DHT22;2059;48.538;12.146;2022-12-10T04:42:46;3.80;99.90
4090;DHT22;2059;48.538;12.146;2022-12-10T04:47:49;3.90;99.90
4090;DHT22;2059;48.538;12.146;2022-12-10T04:52:51;3.80;99.90
4090;DHT22;2059;48.538;12.146;2022-12-10T04:57:53;3.70;99.90
4090;DHT22;2059;48.538;12.146;2022-12-10T05:02:56;3.80;99.90
4090;DHT22;2059;48.538;12.146;2022-12-10T05:07:58;3.90;99.90
4090;DHT22;2059;48.538;12.146;2022-12-10T05:13:00;3.90;99.90
4090;DHT22;2059;48.538;12.146;2022-12-10T05:18:03;3.70;99.90
4090;DHT22;2059;48.538;12.146;2022-12-10T05:23:05;3.80;99.90
4090;DHT22;2059;48.538;12.146;2022-12-10T05:28:21;3.80;99.90
4090;DHT22;2059;48.538;12.146;2022-12-10T05:33:24;3.90;99.90
4090;DHT22;2059;48.538;12.146;2022-12-10T05:38:28;3.70;99.90
4090;DHT22;2059;48.538;12.146;2022-12-10T05:43:31;3.80;99.90
4090;DHT22;2059;48.538;12.146;2022-12-10T05:48:35;3.90;99.90
4090;DHT22;2059;48.538;12.146;2022-12-10T05:53:37;3.60;99.90
4090;DHT22;2059;48.538;12.146;2022-12-10T05:58:40;3.70;99.90
4090;DHT22;2059;48.538;12.146;2022-12-10T06:03:44;4.00;99.90
4090;DHT22;2059;48.538;12.146;2022-12-10T06:08:46;3.80;99.90
4090;DHT22;2059;48.538;12.146;2022-12-10T06:13:48;3.60;99.90
4090;DHT22;2059;48.538;12.146;2022-12-10T06:18:51;3.60;99.90
4090;DHT22;2059;48.538;12.146;2022-12-10T06:23:53;3.40;99.90
4090;DHT22;2059;48.538;12.146;2022-12-10T06:28:55;3.60;99.90
4090;DHT22;2059;48.538;12.146;2022-12-10T06:33:58;3.70;99.90
4090;DHT22;2059;48.538;12.146;2022-12-10T06:39:00;3.60;99.90
4090;DHT22;2059;48.538;12.146;2022-12-10T06:44:02;3.60;99.90
4090;DHT22;2059;48.538;12.146;2022-12-10T06:49:05;3.70;99.90
4090;DHT22;2059;48.538;12.146;2022-12-10T06:54:07;3.90;99.90
4090;DHT22;2059;48.538;12.146;2022-12-10T06:59:09;3.80;99.90
4090;DHT22;2059;48.538;12.146;2022-12-10T07:04:12;4.00;99.90
4090;DHT22;2059;48.538;12.146;2022-12-10T07:09:14;4.10;99.90
4090;DHT22;2059;48.538;12.146;2022-12-10T07:14:17;4.00;99.90
4090;DHT22;2059;48.538;12.146;2022-12-10T07:19:20;4.10;99.90
4090;DHT22;2059;48.538;12.146;2022-12-10T07:24:22;4.00;99.90
4090;DHT22;2059;48.538;12.146;2022-12-10T07:29:25;3.90;99.90
4090;DHT22;2059;48.538;12.146;2022-12-10T07:34:29;4.00;99.90
4090;DHT22;2059;48.538;12.146;2022-12-10T07:39:31;4.00;99.90
4090;DHT22;2059;48.538;12.146;2022-12-10T07:44:32;3.90;99.90
4090;DHT22;2059;48.538;12.146;2022-12-10T07:49:36;3.90;99.90
4090;DHT22;2059;48.538;12.146;2022-12-10T07:54:38;3.80;99.90
4090;DHT22;2059;48.538;12.146;2022-12-10T07:59:39;4.10;99.90
4090;DHT22;2059;48.538;12.146;2022-12-10T08:04:42;4.30;99.90
4090;DHT22;2059;48.538;12.146;2022-12-10T08:09:44;4.10;99.90
4090;DHT22;2059;48.538;12.146;2022-12-10T08:14:46;4.20;99.90
4090;DHT22;2059;48.538;12.146;2022-12-10T08:19:49;4.30;99.90
4090;DHT22;2059;48.538;12.146;2022-12-10T08:24:52;4.30;99.90
4090;DHT22;2059;48.538;12.146;2022-12-10T08:29:54;4.10;99.90
4090;DHT22;2059;48.538;12.146;2022-12-10T08:34:57;4.10;99.90
4090;DHT22;2059;48.538;12.146;2022-12-10T08:39:59;4.10;99.90
4090;DHT22;2059;48.538;12.146;2022-12-10T08:45:01;4.20;99.90
4090;DHT22;2059;48.538;12.146;2022-12-10T08:50:05;4.40;99.90
4090;DHT22;2059;48.538;12.146;2022-12-10T08:55:07;4.20;99.90
4090;DHT22;2059;48.538;12.146;2022-12-10T09:00:11;4.30;99.90
4090;DHT22;2059;48.538;12.146;2022-12-10T09:05:15;4.50;99.90
4090;DHT22;2059;48.538;12.146;2022-12-10T09:10:17;4.60;99.90
4090;DHT22;2059;48.538;12.146;2022-12-10T09:15:19;4.50;99.90
4090;DHT22;2059;48.538;12.146;2022-12-10T09:20:22;4.70;99.90
4090;DHT22;2059;48.538;12.146;2022-12-10T09:25:24;4.70;99.90
4090;DHT22;2059;48.538;12.146;2022-12-10T09:30:26;4.70;99.90
4090;DHT22;2059;48.538;12.146;2022-12-10T09:35:29;4.70;99.90
4090;DHT22;2059;48.538;12.146;2022-12-10T09:40:37;4.60;99.90
4090;DHT22;2059;48.538;12.146;2022-12-10T09:45:44;4.70;99.90
4090;DHT22;2059;48.538;12.146;2022-12-10T09:50:53;4.90;99.90
4090;DHT22;2059;48.538;12.146;2022-12-10T09:55:58;5.00;99.90
4090;DHT22;2059;48.538;12.146;2022-12-10T10:01:03;4.90;99.90
4090;DHT22;2059;48.538;12.146;2022-12-10T10:06:10;4.80;99.90
4090;DHT22;2059;48.538;12.146;2022-12-10T10:11:17;4.60;99.90
4090;DHT22;2059;48.538;12.146;2022-12-10T10:16:23;4.60;99.90
4090;DHT22;2059;48.538;12.146;2022-12-10T10:21:29;4.60;99.90
4090;DHT22;2059;48.538;12.146;2022-12-10T10:26:32;4.80;99.90
4090;DHT22;2059;48.538;12.146;2022-12-10T10:31:36;4.80;99.90
4090;DHT22;2059;48.538;12.146;2022-12-10T10:36:41;4.70;99.90
4090;DHT22;2059;48.538;12.146;2022-12-10T10:41:43;4.80;99.90
4090;DHT22;2059;48.538;12.146;2022-12-10T10:46:48;4.80;99.90
4090;DHT22;2059;48.538;12.146;2022-12-10T10:51:52;4.70;99.90
4090;DHT22;2059;48.538;12.146;2022-12-10T10:56:56;4.70;99.90
4090;DHT22;2059;48.538;12.146;2022-12-10T11:02:02;4.80;99.90
4090;DHT22;2059;48.538;12.146;2022-12-10T11:07:20;4.90;99.90
4090;DHT22;2059;48.538;12.146;2022-12-10T11:12:37;5.00;99.90
4090;DHT22;2059;48.538;12.146;2022-12-10T11:17:46;4.60;99.90
4090;DHT22;2059;48.538;12.146;2022-12-10T11:22:51;4.90;99.90
4090;DHT22;2059;48.538;12.146;2022-12-10T11:27:57;4.70;99.90
4090;DHT22;2059;48.538;12.146;2022-12-10T11:33:09;4.60;99.90
4090;DHT22;2059;48.538;12.146;2022-12-10T11:38:22;4.90;99.90
4090;DHT22;2059;48.538;12.146;2022-12-10T11:43:40;5.10;99.90
4090;DHT22;2059;48.538;12.146;2022-12-10T11:48:55;4.80;99.90
4090;DHT22;2059;48.538;12.146;2022-12-10T11:54:25;4.90;99.90
4090;DHT22;2059;48.538;12.146;2022-12-10T11:59:34;5.00;99.90
4090;DHT22;2059;48.538;12.146;2022-12-10T12:04:53;5.20;99.90
4090;DHT22;2059;48.538;12.146;2022-12-10T12:10:23;5.30;99.90
4090;DHT22;2059;48.538;12.146;2022-12-10T12:15:31;5.20;99.90
4090;DHT22;2059;48.538;12.146;2022-12-10T12:20:36;5.40;99.90
4090;DHT22;2059;48.538;12.146;2022-12-10T12:25:44;5.20;99.90
4090;DHT22;2059;48.538;12.146;2022-12-10T12:30:51;5.20;99.90
4090;DHT22;2059;48.538;12.146;2022-12-10T12:35:58;5.50;99.90
4090;DHT22;2059;48.538;12.146;2022-12-10T12:41:05;5.10;99.90
4090;DHT22;2059;48.538;12.146;2022-12-10T12:46:12;5.20;99.90
4090;DHT22;2059;48.538;12.146;2022-12-10T12:51:19;5.20;99.90
4090;DHT22;2059;48.538;12.146;2022-12-10T12:56:33;5.00;99.90
4090;DHT22;2059;48.538;12.146;2022-12-10T13:01:43;5.00;99.90
4090;DHT22;2059;48.538;12.146;2022-12-10T13:12:48;4.90;99.90
4090;DHT22;2059;48.538;12.146;2022-12-10T13:18:16;5.10;99.90
4090;DHT22;2059;48.538;12.146;2022-12-10T13:23:31;5.00;99.90
4090;DHT22;2059;48.538;12.146;2022-12-10T13:28:49;4.90;99.90
4090;DHT22;2059;48.538;12.146;2022-12-10T13:34:05;5.00;99.90
4090;DHT22;2059;48.538;12.146;2022-12-10T13:39:22;4.80;99.90
4090;DHT22;2059;48.538;12.146;2022-12-10T13:44:48;4.80;99.90
4090;DHT22;2059;48.538;12.146;2022-12-10T13:49:57;4.90;99.90
4090;DHT22;2059;48.538;12.146;2022-12-10T13:55:22;4.80;99.90
4090;DHT22;2059;48.538;12.146;2022-12-10T14:00:35;4.80;99.90
4090;DHT22;2059;48.538;12.146;2022-12-10T14:05:53;4.80;99.90
4090;DHT22;2059;48.538;12.146;2022-12-10T14:10:58;4.80;99.90
4090;DHT22;2059;48.538;12.146;2022-12-10T14:16:02;4.90;99.90
4090;DHT22;2059;48.538;12.146;2022-12-10T14:21:06;4.60;99.90
4090;DHT22;2059;48.538;12.146;2022-12-10T14:26:11;4.70;99.90
4090;DHT22;2059;48.538;12.146;2022-12-10T14:31:17;4.70;99.90
4090;DHT22;2059;48.538;12.146;2022-12-10T14:36:26;4.60;99.90
4090;DHT22;2059;48.538;12.146;2022-12-10T14:41:31;4.50;99.90
4090;DHT22;2059;48.538;12.146;2022-12-10T14:46:35;4.60;99.90
4090;DHT22;2059;48.538;12.146;2022-12-10T14:51:37;4.60;99.90
4090;DHT22;2059;48.538;12.146;2022-12-10T14:56:39;4.50;99.90
4090;DHT22;2059;48.538;12.146;2022-12-10T15:01:47;4.80;99.90
4090;DHT22;2059;48.538;12.146;2022-12-10T15:06:51;4.50;99.90
4090;DHT22;2059;48.538;12.146;2022-12-10T15:11:53;4.30;99.90
4090;DHT22;2059;48.538;12.146;2022-12-10T15:16:57;4.30;99.90
4090;DHT22;2059;48.538;12.146;2022-12-10T15:22:00;4.00;99.90
4090;DHT22;2059;48.538;12.146;2022-12-10T15:27:14;3.80;99.90
4090;DHT22;2059;48.538;12.146;2022-12-10T15:32:21;3.90;99.90
4090;DHT22;2059;48.538;12.146;2022-12-10T15:37:27;4.10;99.90
4090;DHT22;2059;48.538;12.146;2022-12-10T15:42:38;3.70;99.90
4090;DHT22;2059;48.538;12.146;2022-12-10T15:47:41;3.60;99.90
4090;DHT22;2059;48.538;12.146;2022-12-10T15:52:43;3.60;99.90
4090;DHT22;2059;48.538;12.146;2022-12-10T15:57:46;3.30;99.90
4090;DHT22;2059;48.538;12.146;2022-12-10T16:02:53;3.10;99.90
4090;DHT22;2059;48.538;12.146;2022-12-10T16:07:58;3.50;99.90
4090;DHT22;2059;48.538;12.146;2022-12-10T16:13:03;3.60;99.90
4090;DHT22;2059;48.538;12.146;2022-12-10T16:18:08;3.50;99.90
4090;DHT22;2059;48.538;12.146;2022-12-10T16:23:10;3.40;99.90
4090;DHT22;2059;48.538;12.146;2022-12-10T16:28:15;3.50;99.90
4090;DHT22;2059;48.538;12.146;2022-12-10T16:33:23;3.60;99.90
4090;DHT22;2059;48.538;12.146;2022-12-10T16:38:25;3.60;99.90
4090;DHT22;2059;48.538;12.146;2022-12-10T16:43:28;3.60;99.90
4090;DHT22;2059;48.538;12.146;2022-12-10T16:48:32;3.50;99.90
4090;DHT22;2059;48.538;12.146;2022-12-10T16:53:34;3.50;99.90
4090;DHT22;2059;48.538;12.146;2022-12-10T16:58:36;3.60;99.90
4090;DHT22;2059;48.538;12.146;2022-12-10T17:03:39;3.50;99.90
4090;DHT22;2059;48.538;12.146;2022-12-10T17:08:41;3.50;99.90
4090;DHT22;2059;48.538;12.146;2022-12-10T17:13:44;3.40;99.90
4090;DHT22;2059;48.538;12.146;2022-12-10T17:18:47;3.40;99.90
4090;DHT22;2059;48.538;12.146;2022-12-10T17:23:50;3.40;99.90
4090;DHT22;2059;48.538;12.146;2022-12-10T17:28:52;3.30;99.90
4090;DHT22;2059;48.538;12.146;2022-12-10T17:33:57;3.20;99.90
4090;DHT22;2059;48.538;12.146;2022-12-10T17:38:58;3.50;99.90
4090;DHT22;2059;48.538;12.146;2022-12-10T17:44:01;3.40;99.90
4090;DHT22;2059;48.538;12.146;2022-12-10T17:49:04;3.20;99.90
4090;DHT22;2059;48.538;12.146;2022-12-10T17:54:06;3.20;99.90
4090;DHT22;2059;48.538;12.146;2022-12-10T17:59:10;3.10;99.90
4090;DHT22;2059;48.538;12.146;2022-12-10T18:04:15;2.90;99.90
4090;DHT22;2059;48.538;12.146;2022-12-10T18:09:17;3.10;99.90
4090;DHT22;2059;48.538;12.146;2022-12-10T18:14:19;3.30;99.90
4090;DHT22;2059;48.538;12.146;2022-12-10T18:19:22;3.30;99.90
4090;DHT22;2059;48.538;12.146;2022-12-10T18:24:24;3.10;99.90
4090;DHT22;2059;48.538;12.146;2022-12-10T18:29:26;2.90;99.90
4090;DHT22;2059;48.538;12.146;2022-12-10T18:34:29;2.90;99.90
4090;DHT22;2059;48.538;12.146;2022-12-10T18:39:31;2.70;99.90
4090;DHT22;2059;48.538;12.146;2022-12-10T18:44:34;3.10;99.90
4090;DHT22;2059;48.538;12.146;2022-12-10T18:49:37;3.10;99.90
4090;DHT22;2059;48.538;12.146;2022-12-10T18:54:39;3.00;99.90
4090;DHT22;2059;48.538;12.146;2022-12-10T18:59:41;2.70;99.90
4090;DHT22;2059;48.538;12.146;2022-12-10T19:04:44;2.80;99.90
4090;DHT22;2059;48.538;12.146;2022-12-10T19:09:46;2.80;99.90
4090;DHT22;2059;48.538;12.146;2022-12-10T19:14:50;3.00;99.90
4090;DHT22;2059;48.538;12.146;2022-12-10T19:19:53;2.90;99.90
4090;DHT22;2059;48.538;12.146;2022-12-10T19:24:55;2.80;99.90
4090;DHT22;2059;48.538;12.146;2022-12-10T19:29:57;2.90;99.90
4090;DHT22;2059;48.538;12.146;2022-12-10T19:35:00;2.60;99.90
4090;DHT22;2059;48.538;12.146;2022-12-10T19:40:03;2.60;99.90
4090;DHT22;2059;48.538;12.146;2022-12-10T19:45:06;2.50;99.90
4090;DHT22;2059;48.538;12.146;2022-12-10T19:50:13;2.50;99.90
4090;DHT22;2059;48.538;12.146;2022-12-10T19:55:17;2.60;99.90
4090;DHT22;2059;48.538;12.146;2022-12-10T20:00:22;2.40;99.90
4090;DHT22;2059;48.538;12.146;2022-12-10T20:05:25;2.60;99.90
4090;DHT22;2059;48.538;12.146;2022-12-10T20:10:28;2.50;99.90
4090;DHT22;2059;48.538;12.146;2022-12-10T20:15:30;2.30;99.90
4090;DHT22;2059;48.538;12.146;2022-12-10T20:20:33;2.60;99.90
4090;DHT22;2059;48.538;12.146;2022-12-10T20:25:35;2.70;99.90
4090;DHT22;2059;48.538;12.146;2022-12-10T20:30:37;2.70;99.90
4090;DHT22;2059;48.538;12.146;2022-12-10T20:35:41;2.70;99.90
4090;DHT22;2059;48.538;12.146;2022-12-10T20:40:43;2.60;99.90
4090;DHT22;2059;48.538;12.146;2022-12-10T20:45:44;2.50;99.90
4090;DHT22;2059;48.538;12.146;2022-12-10T20:50:48;2.60;99.90
4090;DHT22;2059;48.538;12.146;2022-12-10T20:55:49;2.70;99.90
4090;DHT22;2059;48.538;12.146;2022-12-10T21:00:52;2.70;99.90
4090;DHT22;2059;48.538;12.146;2022-12-10T21:05:55;2.80;99.90
4090;DHT22;2059;48.538;12.146;2022-12-10T21:10:56;2.80;99.90
4090;DHT22;2059;48.538;12.146;2022-12-10T21:16:00;2.90;99.90
4090;DHT22;2059;48.538;12.146;2022-12-10T21:21:04;2.80;99.90
4090;DHT22;2059;48.538;12.146;2022-12-10T21:26:06;2.80;99.90
4090;DHT22;2059;48.538;12.146;2022-12-10T21:31:14;3.00;99.90
4090;DHT22;2059;48.538;12.146;2022-12-10T21:36:19;3.00;99.90
4090;DHT22;2059;48.538;12.146;2022-12-10T21:41:23;3.20;99.90
4090;DHT22;2059;48.538;12.146;2022-12-10T21:46:43;3.10;99.90
4090;DHT22;2059;48.538;12.146;2022-12-10T21:51:46;3.00;99.90
4090;DHT22;2059;48.538;12.146;2022-12-10T21:56:48;2.90;99.90
4090;DHT22;2059;48.538;12.146;2022-12-10T22:01:50;3.00;99.90
4090;DHT22;2059;48.538;12.146;2022-12-10T22:06:53;3.00;99.90
4090;DHT22;2059;48.538;12.146;2022-12-10T22:11:55;3.10;99.90
4090;DHT22;2059;48.538;12.146;2022-12-10T22:16:57;2.90;99.90
4090;DHT22;2059;48.538;12.146;2022-12-10T22:22:00;3.00;99.90
4090;DHT22;2059;48.538;12.146;2022-12-10T22:27:02;2.90;99.90
4090;DHT22;2059;48.538;12.146;2022-12-10T22:32:04;2.80;99.90
4090;DHT22;2059;48.538;12.146;2022-12-10T22:37:07;2.80;99.90
4090;DHT22;2059;48.538;12.146;2022-12-10T22:42:09;2.60;99.90
4090;DHT22;2059;48.538;12.146;2022-12-10T22:47:11;2.60;99.90
4090;DHT22;2059;48.538;12.146;2022-12-10T22:52:14;3.00;99.90
4090;DHT22;2059;48.538;12.146;2022-12-10T22:57:16;3.00;99.90
4090;DHT22;2059;48.538;12.146;2022-12-10T23:02:18;2.70;99.90
4090;DHT22;2059;48.538;12.146;2022-12-10T23:07:21;2.60;99.90
4090;DHT22;2059;48.538;12.146;2022-12-10T23:12:23;2.60;99.90
4090;DHT22;2059;48.538;12.146;2022-12-10T23:17:43;2.80;99.90
4090;DHT22;2059;48.538;12.146;2022-12-10T23:22:46;2.70;99.90
4090;DHT22;2059;48.538;12.146;2022-12-10T23:27:48;2.70;99.90
4090;DHT22;2059;48.538;12.146;2022-12-10T23:32:50;2.80;99.90
4090;DHT22;2059;48.538;12.146;2022-12-10T23:37:53;3.00;99.90
4090;DHT22;2059;48.538;12.146;2022-12-10T23:42:55;3.00;99.90
4090;DHT22;2059;48.538;12.146;2022-12-10T23:47:57;2.50;99.90
4090;DHT22;2059;48.538;12.146;2022-12-10T23:53:01;2.60;99.90
4090;DHT22;2059;48.538;12.146;2022-12-10T23:58:03;2.60;99.90
